sensor_id;sensor_type;location;lat;lon;timestamp;temperature;humidity
1391;DHT22;690;51.454;7.194;2022-09-09T00:00:55;17.90;1.00
1391;DHT22;690;51.454;7.194;2022-09-09T00:03:27;17.90;9.10
1391;DHT22;690;51.454;7.194;2022-09-09T00:06:01;17.90;99.90
1391;DHT22;690;51.454;7.194;2022-09-09T00:08:50;17.80;99.90
1391;DHT22;690;51.454;7.194;2022-09-09T00:11:26;17.80;99.90
1391;DHT22;690;51.454;7.194;2022-09-09T00:13:57;17.80;1.00
1391;DHT22;690;51.454;7.194;2022-09-09T00:16:28;17.80;1.00
1391;DHT22;690;51.454;7.194;2022-09-09T00:19:02;17.80;1.00
1391;DHT22;690;51.454;7.194;2022-09-09T00:21:33;17.80;63.70
1391;DHT22;690;51.454;7.194;2022-09-09T00:24:10;17.80;99.90
1391;DHT22;690;51.454;7.194;2022-09-09T00:26:44;17.70;99.90
1391;DHT22;690;51.454;7.194;2022-09-09T00:29:21;17.70;99.90
1391;DHT22;690;51.454;7.194;2022-09-09T00:31:54;17.70;1.00
1391;DHT22;690;51.454;7.194;2022-09-09T00:34:26;17.70;1.00
1391;DHT22;690;51.454;7.194;2022-09-09T00:36:56;17.70;1.00
1391;DHT22;690;51.454;7.194;2022-09-09T00:39:30;17.70;1.00
1391;DHT22;690;51.454;7.194;2022-09-09T00:42:10;17.70;99.90
1391;DHT22;690;51.454;7.194;2022-09-09T00:44:51;17.70;99.90
1391;DHT22;690;51.454;7.194;2022-09-09T00:47:33;17.70;99.90
1391;DHT22;690;51.454;7.194;2022-09-09T00:50:08;17.70;99.90
1391;DHT22;690;51.454;7.194;2022-09-09T00:52:42;17.60;99.90
1391;DHT22;690;51.454;7.194;2022-09-09T00:55:14;17.60;1.00
1391;DHT22;690;51.454;7.194;2022-09-09T00:57:46;17.60;1.00
1391;DHT22;690;51.454;7.194;2022-09-09T01:00:21;17.60;1.00
1391;DHT22;690;51.454;7.194;2022-09-09T01:03:00;17.60;1.00
1391;DHT22;690;51.454;7.194;2022-09-09T01:05:35;17.60;1.00
1391;DHT22;690;51.454;7.194;2022-09-09T01:08:14;17.50;1.00
1391;DHT22;690;51.454;7.194;2022-09-09T01:10:50;17.50;1.00
1391;DHT22;690;51.454;7.194;2022-09-09T01:13:24;17.50;99.90
1391;DHT22;690;51.454;7.194;2022-09-09T01:15:53;17.50;99.90
1391;DHT22;690;51.454;7.194;2022-09-09T01:18:23;17.50;99.90
1391;DHT22;690;51.454;7.194;2022-09-09T01:20:59;17.50;99.90
1391;DHT22;690;51.454;7.194;2022-09-09T01:23:47;17.40;99.90
1391;DHT22;690;51.454;7.194;2022-09-09T01:26:23;17.40;1.00
1391;DHT22;690;51.454;7.194;2022-09-09T01:28:52;17.50;1.00
1391;DHT22;690;51.454;7.194;2022-09-09T01:31:23;17.40;1.00
1391;DHT22;690;51.454;7.194;2022-09-09T01:33:53;17.40;1.00
1391;DHT22;690;51.454;7.194;2022-09-09T01:36:26;17.50;1.00
1391;DHT22;690;51.454;7.194;2022-09-09T01:38:55;17.40;1.00
1391;DHT22;690;51.454;7.194;2022-09-09T01:41:23;17.40;1.00
1391;DHT22;690;51.454;7.194;2022-09-09T01:43:50;17.40;13.30
1391;DHT22;690;51.454;7.194;2022-09-09T01:46:21;17.40;42.70
1391;DHT22;690;51.454;7.194;2022-09-09T01:48:50;17.40;64.90
1391;DHT22;690;51.454;7.194;2022-09-09T01:51:17;17.40;61.50
1391;DHT22;690;51.454;7.194;2022-09-09T01:53:45;17.40;99.90
1391;DHT22;690;51.454;7.194;2022-09-09T01:56:21;17.40;99.90
1391;DHT22;690;51.454;7.194;2022-09-09T01:59:02;17.40;99.90
1391;DHT22;690;51.454;7.194;2022-09-09T02:01:39;17.40;99.90
1391;DHT22;690;51.454;7.194;2022-09-09T02:04:23;17.40;99.90
1391;DHT22;690;51.454;7.194;2022-09-09T02:06:55;17.50;99.90
1391;DHT22;690;51.454;7.194;2022-09-09T02:09:23;17.50;99.90
1391;DHT22;690;51.454;7.194;2022-09-09T02:11:56;17.50;99.90
1391;DHT22;690;51.454;7.194;2022-09-09T02:14:30;17.60;99.90
1391;DHT22;690;51.454;7.194;2022-09-09T02:17:03;17.60;99.90
1391;DHT22;690;51.454;7.194;2022-09-09T02:19:35;17.60;99.90
1391;DHT22;690;51.454;7.194;2022-09-09T02:22:04;17.70;99.90
1391;DHT22;690;51.454;7.194;2022-09-09T02:24:33;17.70;99.90
1391;DHT22;690;51.454;7.194;2022-09-09T02:27:04;17.70;99.90
1391;DHT22;690;51.454;7.194;2022-09-09T02:29:37;17.70;99.90
1391;DHT22;690;51.454;7.194;2022-09-09T02:32:11;17.70;99.90
1391;DHT22;690;51.454;7.194;2022-09-09T02:34:41;17.70;99.90
1391;DHT22;690;51.454;7.194;2022-09-09T02:37:10;17.70;99.90
1391;DHT22;690;51.454;7.194;2022-09-09T02:39:38;17.70;99.90
1391;DHT22;690;51.454;7.194;2022-09-09T02:42:05;17.70;99.90
1391;DHT22;690;51.454;7.194;2022-09-09T02:44:35;17.60;99.90
1391;DHT22;690;51.454;7.194;2022-09-09T02:47:14;17.70;99.90
1391;DHT22;690;51.454;7.194;2022-09-09T02:49:53;17.70;99.90
1391;DHT22;690;51.454;7.194;2022-09-09T02:52:28;17.70;99.90
1391;DHT22;690;51.454;7.194;2022-09-09T02:55:02;17.70;99.90
1391;DHT22;690;51.454;7.194;2022-09-09T02:57:32;17.70;99.90
1391;DHT22;690;51.454;7.194;2022-09-09T03:00:01;17.70;1.00
1391;DHT22;690;51.454;7.194;2022-09-09T03:02:29;17.70;1.00
1391;DHT22;690;51.454;7.194;2022-09-09T03:04:55;17.70;1.00
1391;DHT22;690;51.454;7.194;2022-09-09T03:07:23;17.80;1.00
1391;DHT22;690;51.454;7.194;2022-09-09T03:09:50;17.80;1.00
1391;DHT22;690;51.454;7.194;2022-09-09T03:12:19;17.80;1.00
1391;DHT22;690;51.454;7.194;2022-09-09T03:14:47;17.80;1.00
1391;DHT22;690;51.454;7.194;2022-09-09T03:17:15;17.80;1.00
1391;DHT22;690;51.454;7.194;2022-09-09T03:19:42;17.80;1.00
1391;DHT22;690;51.454;7.194;2022-09-09T03:22:10;17.90;1.00
1391;DHT22;690;51.454;7.194;2022-09-09T03:24:37;17.90;1.00
1391;DHT22;690;51.454;7.194;2022-09-09T03:27:04;17.90;1.00
1391;DHT22;690;51.454;7.194;2022-09-09T03:29:31;17.90;1.00
1391;DHT22;690;51.454;7.194;2022-09-09T03:31:58;17.90;1.00
1391;DHT22;690;51.454;7.194;2022-09-09T03:34:26;17.90;1.00
1391;DHT22;690;51.454;7.194;2022-09-09T03:36:53;17.90;1.00
1391;DHT22;690;51.454;7.194;2022-09-09T03:39:21;17.90;1.00
1391;DHT22;690;51.454;7.194;2022-09-09T03:41:47;17.90;99.90
1391;DHT22;690;51.454;7.194;2022-09-09T03:44:14;17.90;99.90
1391;DHT22;690;51.454;7.194;2022-09-09T03:46:41;17.90;99.90
1391;DHT22;690;51.454;7.194;2022-09-09T03:49:08;17.90;99.90
1391;DHT22;690;51.454;7.194;2022-09-09T03:51:37;17.80;99.90
1391;DHT22;690;51.454;7.194;2022-09-09T03:54:04;17.80;99.90
1391;DHT22;690;51.454;7.194;2022-09-09T03:56:33;17.80;99.90
1391;DHT22;690;51.454;7.194;2022-09-09T03:59:00;17.80;99.90
1391;DHT22;690;51.454;7.194;2022-09-09T04:01:28;17.70;99.90
1391;DHT22;690;51.454;7.194;2022-09-09T04:03:55;17.70;99.90
1391;DHT22;690;51.454;7.194;2022-09-09T04:06:24;17.70;99.90
1391;DHT22;690;51.454;7.194;2022-09-09T04:08:53;17.70;99.90
1391;DHT22;690;51.454;7.194;2022-09-09T04:11:21;17.70;99.90
1391;DHT22;690;51.454;7.194;2022-09-09T04:13:48;17.60;99.90
1391;DHT22;690;51.454;7.194;2022-09-09T04:16:15;17.60;99.90
1391;DHT22;690;51.454;7.194;2022-09-09T04:18:43;17.60;99.90
1391;DHT22;690;51.454;7.194;2022-09-09T04:21:10;17.60;99.90
1391;DHT22;690;51.454;7.194;2022-09-09T04:23:37;17.60;99.90
1391;DHT22;690;51.454;7.194;2022-09-09T04:26:06;17.70;99.90
1391;DHT22;690;51.454;7.194;2022-09-09T04:28:34;17.70;99.90
1391;DHT22;690;51.454;7.194;2022-09-09T04:31:06;17.70;99.90
1391;DHT22;690;51.454;7.194;2022-09-09T04:33:33;17.70;99.90
1391;DHT22;690;51.454;7.194;2022-09-09T04:36:00;17.70;99.90
1391;DHT22;690;51.454;7.194;2022-09-09T04:38:27;17.70;99.90
1391;DHT22;690;51.454;7.194;2022-09-09T04:40:54;17.70;99.90
1391;DHT22;690;51.454;7.194;2022-09-09T04:43:23;17.70;99.90
1391;DHT22;690;51.454;7.194;2022-09-09T04:45:51;17.70;99.90
1391;DHT22;690;51.454;7.194;2022-09-09T04:48:19;17.70;99.90
1391;DHT22;690;51.454;7.194;2022-09-09T04:50:54;17.70;99.90
1391;DHT22;690;51.454;7.194;2022-09-09T04:53:20;17.70;99.90
1391;DHT22;690;51.454;7.194;2022-09-09T04:55:48;17.70;99.90
1391;DHT22;690;51.454;7.194;2022-09-09T04:58:15;17.60;99.90
1391;DHT22;690;51.454;7.194;2022-09-09T05:00:43;17.70;99.90
1391;DHT22;690;51.454;7.194;2022-09-09T05:03:10;17.70;99.90
1391;DHT22;690;51.454;7.194;2022-09-09T05:05:38;17.60;99.90
1391;DHT22;690;51.454;7.194;2022-09-09T05:08:06;17.60;99.90
1391;DHT22;690;51.454;7.194;2022-09-09T05:10:36;17.70;99.90
1391;DHT22;690;51.454;7.194;2022-09-09T05:13:03;17.70;99.90
1391;DHT22;690;51.454;7.194;2022-09-09T05:15:30;17.80;99.90
1391;DHT22;690;51.454;7.194;2022-09-09T05:18:00;17.80;99.90
1391;DHT22;690;51.454;7.194;2022-09-09T05:20:28;17.80;99.90
1391;DHT22;690;51.454;7.194;2022-09-09T05:22:55;17.90;99.90
1391;DHT22;690;51.454;7.194;2022-09-09T05:25:23;17.90;99.90
1391;DHT22;690;51.454;7.194;2022-09-09T05:27:51;17.90;99.90
1391;DHT22;690;51.454;7.194;2022-09-09T05:30:19;17.90;99.90
1391;DHT22;690;51.454;7.194;2022-09-09T05:32:46;18.00;99.90
1391;DHT22;690;51.454;7.194;2022-09-09T05:35:15;18.00;99.90
1391;DHT22;690;51.454;7.194;2022-09-09T05:37:44;18.00;99.90
1391;DHT22;690;51.454;7.194;2022-09-09T05:40:12;18.00;99.90
1391;DHT22;690;51.454;7.194;2022-09-09T05:42:39;18.10;99.90
1391;DHT22;690;51.454;7.194;2022-09-09T05:45:06;18.10;99.90
1391;DHT22;690;51.454;7.194;2022-09-09T05:47:34;18.20;99.90
1391;DHT22;690;51.454;7.194;2022-09-09T05:50:03;18.20;99.90
1391;DHT22;690;51.454;7.194;2022-09-09T05:52:32;18.20;99.90
1391;DHT22;690;51.454;7.194;2022-09-09T05:54:59;18.20;99.90
1391;DHT22;690;51.454;7.194;2022-09-09T05:57:26;18.30;99.90
1391;DHT22;690;51.454;7.194;2022-09-09T05:59:52;18.30;99.90
1391;DHT22;690;51.454;7.194;2022-09-09T06:02:20;18.30;99.90
1391;DHT22;690;51.454;7.194;2022-09-09T06:04:47;18.40;99.90
1391;DHT22;690;51.454;7.194;2022-09-09T06:07:13;18.40;99.90
1391;DHT22;690;51.454;7.194;2022-09-09T06:09:42;18.50;99.90
1391;DHT22;690;51.454;7.194;2022-09-09T06:12:09;18.50;99.90
1391;DHT22;690;51.454;7.194;2022-09-09T06:14:36;18.50;99.90
1391;DHT22;690;51.454;7.194;2022-09-09T06:17:03;18.50;99.90
1391;DHT22;690;51.454;7.194;2022-09-09T06:19:30;18.60;99.90
1391;DHT22;690;51.454;7.194;2022-09-09T06:21:57;18.60;90.70
1391;DHT22;690;51.454;7.194;2022-09-09T06:24:25;18.70;15.50
1391;DHT22;690;51.454;7.194;2022-09-09T06:26:53;18.70;1.00
1391;DHT22;690;51.454;7.194;2022-09-09T06:29:20;18.70;1.00
1391;DHT22;690;51.454;7.194;2022-09-09T06:31:47;18.80;1.00
1391;DHT22;690;51.454;7.194;2022-09-09T06:34:14;18.80;1.00
1391;DHT22;690;51.454;7.194;2022-09-09T06:36:41;18.80;1.00
1391;DHT22;690;51.454;7.194;2022-09-09T06:39:08;18.90;1.00
1391;DHT22;690;51.454;7.194;2022-09-09T06:41:36;18.90;1.00
1391;DHT22;690;51.454;7.194;2022-09-09T06:44:05;18.90;1.00
1391;DHT22;690;51.454;7.194;2022-09-09T06:46:32;19.00;1.00
1391;DHT22;690;51.454;7.194;2022-09-09T06:48:59;19.00;99.90
1391;DHT22;690;51.454;7.194;2022-09-09T06:51:27;19.10;99.90
1391;DHT22;690;51.454;7.194;2022-09-09T06:53:55;19.10;99.90
1391;DHT22;690;51.454;7.194;2022-09-09T06:56:24;19.10;99.90
1391;DHT22;690;51.454;7.194;2022-09-09T06:58:54;19.20;99.90
1391;DHT22;690;51.454;7.194;2022-09-09T07:01:24;19.20;99.90
1391;DHT22;690;51.454;7.194;2022-09-09T07:03:53;19.20;31.70
1391;DHT22;690;51.454;7.194;2022-09-09T07:06:22;19.30;16.60
1391;DHT22;690;51.454;7.194;2022-09-09T07:08:51;19.40;1.00
1391;DHT22;690;51.454;7.194;2022-09-09T07:11:19;19.50;1.00
1391;DHT22;690;51.454;7.194;2022-09-09T07:13:46;19.60;1.00
1391;DHT22;690;51.454;7.194;2022-09-09T07:16:14;19.60;1.00
1391;DHT22;690;51.454;7.194;2022-09-09T07:18:43;19.70;99.90
1391;DHT22;690;51.454;7.194;2022-09-09T07:21:11;19.80;99.90
1391;DHT22;690;51.454;7.194;2022-09-09T07:23:39;19.80;1.00
1391;DHT22;690;51.454;7.194;2022-09-09T07:26:10;20.00;1.00
1391;DHT22;690;51.454;7.194;2022-09-09T07:28:37;20.00;1.00
1391;DHT22;690;51.454;7.194;2022-09-09T07:31:05;20.10;99.90
1391;DHT22;690;51.454;7.194;2022-09-09T07:33:34;20.10;99.90
1391;DHT22;690;51.454;7.194;2022-09-09T07:36:08;20.20;1.00
1391;DHT22;690;51.454;7.194;2022-09-09T07:38:38;20.30;1.00
1391;DHT22;690;51.454;7.194;2022-09-09T07:41:07;20.40;1.00
1391;DHT22;690;51.454;7.194;2022-09-09T07:43:37;20.60;1.00
1391;DHT22;690;51.454;7.194;2022-09-09T07:46:05;20.70;99.90
1391;DHT22;690;51.454;7.194;2022-09-09T07:48:32;20.80;1.00
1391;DHT22;690;51.454;7.194;2022-09-09T07:51:06;20.90;1.00
1391;DHT22;690;51.454;7.194;2022-09-09T07:53:33;20.90;99.90
1391;DHT22;690;51.454;7.194;2022-09-09T07:56:06;21.00;99.90
1391;DHT22;690;51.454;7.194;2022-09-09T07:58:34;20.90;99.90
1391;DHT22;690;51.454;7.194;2022-09-09T08:01:06;20.90;39.50
1391;DHT22;690;51.454;7.194;2022-09-09T08:03:34;20.90;2.20
1391;DHT22;690;51.454;7.194;2022-09-09T08:06:02;20.90;1.00
1391;DHT22;690;51.454;7.194;2022-09-09T08:08:30;20.90;1.00
1391;DHT22;690;51.454;7.194;2022-09-09T08:11:06;20.90;1.00
1391;DHT22;690;51.454;7.194;2022-09-09T08:13:35;20.90;1.00
1391;DHT22;690;51.454;7.194;2022-09-09T08:16:07;20.90;1.00
1391;DHT22;690;51.454;7.194;2022-09-09T08:18:34;21.00;1.00
1391;DHT22;690;51.454;7.194;2022-09-09T08:21:08;21.10;1.00
1391;DHT22;690;51.454;7.194;2022-09-09T08:23:39;21.10;1.00
1391;DHT22;690;51.454;7.194;2022-09-09T08:26:09;21.20;1.00
1391;DHT22;690;51.454;7.194;2022-09-09T08:28:36;21.30;1.00
1391;DHT22;690;51.454;7.194;2022-09-09T08:31:09;21.40;1.00
1391;DHT22;690;51.454;7.194;2022-09-09T08:33:36;21.40;1.00
1391;DHT22;690;51.454;7.194;2022-09-09T08:36:04;21.50;1.00
1391;DHT22;690;51.454;7.194;2022-09-09T08:38:32;21.50;1.00
1391;DHT22;690;51.454;7.194;2022-09-09T08:41:12;21.50;1.00
1391;DHT22;690;51.454;7.194;2022-09-09T08:43:44;21.50;1.00
1391;DHT22;690;51.454;7.194;2022-09-09T08:46:19;21.50;1.00
1391;DHT22;690;51.454;7.194;2022-09-09T08:48:57;21.50;1.00
1391;DHT22;690;51.454;7.194;2022-09-09T08:51:27;21.50;1.00
1391;DHT22;690;51.454;7.194;2022-09-09T08:53:57;21.50;1.00
1391;DHT22;690;51.454;7.194;2022-09-09T08:56:28;21.50;1.00
1391;DHT22;690;51.454;7.194;2022-09-09T08:59:00;21.50;1.00
1391;DHT22;690;51.454;7.194;2022-09-09T09:01:38;21.60;1.00
1391;DHT22;690;51.454;7.194;2022-09-09T09:04:14;21.70;1.00
1391;DHT22;690;51.454;7.194;2022-09-09T09:06:52;22.20;1.00
1391;DHT22;690;51.454;7.194;2022-09-09T09:09:24;22.80;1.00
1391;DHT22;690;51.454;7.194;2022-09-09T09:11:56;23.20;99.90
1391;DHT22;690;51.454;7.194;2022-09-09T09:14:28;23.60;99.90
1391;DHT22;690;51.454;7.194;2022-09-09T09:16:58;23.90;99.90
1391;DHT22;690;51.454;7.194;2022-09-09T09:19:26;24.10;99.90
1391;DHT22;690;51.454;7.194;2022-09-09T09:21:57;24.20;99.90
1391;DHT22;690;51.454;7.194;2022-09-09T09:24:33;24.40;99.90
1391;DHT22;690;51.454;7.194;2022-09-09T09:27:12;24.60;99.90
1391;DHT22;690;51.454;7.194;2022-09-09T09:29:40;24.70;99.90
1391;DHT22;690;51.454;7.194;2022-09-09T09:32:13;24.60;99.90
1391;DHT22;690;51.454;7.194;2022-09-09T09:34:41;24.60;99.90
1391;DHT22;690;51.454;7.194;2022-09-09T09:37:16;24.60;99.90
1391;DHT22;690;51.454;7.194;2022-09-09T09:39:45;24.60;99.90
1391;DHT22;690;51.454;7.194;2022-09-09T09:42:16;24.60;99.90
1391;DHT22;690;51.454;7.194;2022-09-09T09:44:43;24.60;99.90
1391;DHT22;690;51.454;7.194;2022-09-09T09:47:12;24.70;99.90
1391;DHT22;690;51.454;7.194;2022-09-09T09:49:51;24.70;99.90
1391;DHT22;690;51.454;7.194;2022-09-09T09:52:22;24.70;99.90
1391;DHT22;690;51.454;7.194;2022-09-09T09:54:49;24.60;99.90
1391;DHT22;690;51.454;7.194;2022-09-09T09:57:23;24.70;99.90
1391;DHT22;690;51.454;7.194;2022-09-09T10:00:01;24.80;99.90
1391;DHT22;690;51.454;7.194;2022-09-09T10:02:37;24.70;99.90
1391;DHT22;690;51.454;7.194;2022-09-09T10:05:06;24.80;99.90
1391;DHT22;690;51.454;7.194;2022-09-09T10:07:38;24.90;99.90
1391;DHT22;690;51.454;7.194;2022-09-09T10:10:08;25.00;99.90
1391;DHT22;690;51.454;7.194;2022-09-09T10:12:47;25.10;99.90
1391;DHT22;690;51.454;7.194;2022-09-09T10:15:33;25.20;99.90
1391;DHT22;690;51.454;7.194;2022-09-09T10:18:14;25.20;99.90
1391;DHT22;690;51.454;7.194;2022-09-09T10:20:48;25.20;99.90
1391;DHT22;690;51.454;7.194;2022-09-09T10:23:29;25.30;99.90
1391;DHT22;690;51.454;7.194;2022-09-09T10:26:16;25.20;99.90
1391;DHT22;690;51.454;7.194;2022-09-09T10:29:06;25.30;99.90
1391;DHT22;690;51.454;7.194;2022-09-09T10:31:43;25.40;99.90
1391;DHT22;690;51.454;7.194;2022-09-09T10:34:23;25.50;99.90
1391;DHT22;690;51.454;7.194;2022-09-09T10:36:53;25.50;99.90
1391;DHT22;690;51.454;7.194;2022-09-09T10:39:33;25.50;99.90
1391;DHT22;690;51.454;7.194;2022-09-09T10:42:05;25.40;99.90
1391;DHT22;690;51.454;7.194;2022-09-09T10:44:58;25.40;99.90
1391;DHT22;690;51.454;7.194;2022-09-09T10:47:42;25.40;99.90
1391;DHT22;690;51.454;7.194;2022-09-09T10:50:42;25.40;99.90
1391;DHT22;690;51.454;7.194;2022-09-09T10:53:18;25.30;99.90
1391;DHT22;690;51.454;7.194;2022-09-09T10:55:52;25.30;99.90
1391;DHT22;690;51.454;7.194;2022-09-09T10:58:23;25.30;99.90
1391;DHT22;690;51.454;7.194;2022-09-09T11:00:57;25.30;99.90
1391;DHT22;690;51.454;7.194;2022-09-09T11:03:28;25.30;99.90
1391;DHT22;690;51.454;7.194;2022-09-09T11:05:59;25.20;99.90
1391;DHT22;690;51.454;7.194;2022-09-09T11:08:28;25.40;99.90
1391;DHT22;690;51.454;7.194;2022-09-09T11:11:00;25.50;99.90
1391;DHT22;690;51.454;7.194;2022-09-09T11:13:34;25.60;99.90
1391;DHT22;690;51.454;7.194;2022-09-09T11:16:16;25.50;99.90
1391;DHT22;690;51.454;7.194;2022-09-09T11:18:46;25.50;99.90
1391;DHT22;690;51.454;7.194;2022-09-09T11:21:18;25.60;99.90
1391;DHT22;690;51.454;7.194;2022-09-09T11:23:50;25.50;99.90
1391;DHT22;690;51.454;7.194;2022-09-09T11:26:29;25.60;99.90
1391;DHT22;690;51.454;7.194;2022-09-09T11:29:09;25.60;99.90
1391;DHT22;690;51.454;7.194;2022-09-09T11:31:57;25.60;99.90
1391;DHT22;690;51.454;7.194;2022-09-09T11:34:44;25.50;99.90
1391;DHT22;690;51.454;7.194;2022-09-09T11:37:35;25.60;99.90
1391;DHT22;690;51.454;7.194;2022-09-09T11:40:16;25.50;99.90
1391;DHT22;690;51.454;7.194;2022-09-09T11:42:44;25.60;99.90
1391;DHT22;690;51.454;7.194;2022-09-09T11:45:20;25.70;99.90
1391;DHT22;690;51.454;7.194;2022-09-09T11:47:54;25.60;99.90
1391;DHT22;690;51.454;7.194;2022-09-09T11:50:30;25.70;99.90
1391;DHT22;690;51.454;7.194;2022-09-09T11:53:19;25.80;99.90
1391;DHT22;690;51.454;7.194;2022-09-09T11:55:59;25.80;99.90
1391;DHT22;690;51.454;7.194;2022-09-09T11:58:28;25.90;99.90
1391;DHT22;690;51.454;7.194;2022-09-09T12:00:58;25.90;99.90
1391;DHT22;690;51.454;7.194;2022-09-09T12:03:42;25.90;99.90
1391;DHT22;690;51.454;7.194;2022-09-09T12:06:13;25.80;99.90
1391;DHT22;690;51.454;7.194;2022-09-09T12:08:44;25.90;99.90
1391;DHT22;690;51.454;7.194;2022-09-09T12:11:24;26.10;99.90
1391;DHT22;690;51.454;7.194;2022-09-09T12:13:53;26.10;99.90
1391;DHT22;690;51.454;7.194;2022-09-09T12:16:32;26.00;99.90
1391;DHT22;690;51.454;7.194;2022-09-09T12:19:06;25.70;99.90
1391;DHT22;690;51.454;7.194;2022-09-09T12:21:44;25.50;99.90
1391;DHT22;690;51.454;7.194;2022-09-09T12:24:17;25.30;99.90
1391;DHT22;690;51.454;7.194;2022-09-09T12:26:53;25.00;99.90
1391;DHT22;690;51.454;7.194;2022-09-09T12:29:28;24.70;99.90
1391;DHT22;690;51.454;7.194;2022-09-09T12:32:01;24.50;99.90
1391;DHT22;690;51.454;7.194;2022-09-09T12:34:38;24.30;99.90
1391;DHT22;690;51.454;7.194;2022-09-09T12:37:13;24.10;99.90
1391;DHT22;690;51.454;7.194;2022-09-09T12:39:45;24.00;99.90
1391;DHT22;690;51.454;7.194;2022-09-09T12:42:17;24.10;99.90
1391;DHT22;690;51.454;7.194;2022-09-09T12:44:52;24.20;99.90
1391;DHT22;690;51.454;7.194;2022-09-09T12:47:20;24.30;99.90
1391;DHT22;690;51.454;7.194;2022-09-09T12:49:50;24.30;99.90
1391;DHT22;690;51.454;7.194;2022-09-09T12:52:23;24.30;99.90
1391;DHT22;690;51.454;7.194;2022-09-09T12:54:52;24.40;99.90
1391;DHT22;690;51.454;7.194;2022-09-09T12:57:20;24.40;99.90
1391;DHT22;690;51.454;7.194;2022-09-09T12:59:48;24.40;99.90
1391;DHT22;690;51.454;7.194;2022-09-09T13:02:21;24.30;99.90
1391;DHT22;690;51.454;7.194;2022-09-09T13:04:50;24.20;99.90
1391;DHT22;690;51.454;7.194;2022-09-09T13:07:17;24.20;99.90
1391;DHT22;690;51.454;7.194;2022-09-09T13:09:45;24.30;99.90
1391;DHT22;690;51.454;7.194;2022-09-09T13:12:15;24.40;99.90
1391;DHT22;690;51.454;7.194;2022-09-09T13:14:45;24.40;99.90
1391;DHT22;690;51.454;7.194;2022-09-09T13:17:20;24.50;99.90
1391;DHT22;690;51.454;7.194;2022-09-09T13:19:50;24.50;99.90
1391;DHT22;690;51.454;7.194;2022-09-09T13:22:22;24.40;99.90
1391;DHT22;690;51.454;7.194;2022-09-09T13:25:03;24.40;99.90
1391;DHT22;690;51.454;7.194;2022-09-09T13:27:32;24.30;99.90
1391;DHT22;690;51.454;7.194;2022-09-09T13:30:00;24.30;99.90
1391;DHT22;690;51.454;7.194;2022-09-09T13:32:28;24.30;99.90
1391;DHT22;690;51.454;7.194;2022-09-09T13:34:59;24.10;99.90
1391;DHT22;690;51.454;7.194;2022-09-09T13:37:31;24.00;99.90
1391;DHT22;690;51.454;7.194;2022-09-09T13:39:59;23.90;99.90
1391;DHT22;690;51.454;7.194;2022-09-09T13:42:28;23.70;99.90
1391;DHT22;690;51.454;7.194;2022-09-09T13:44:56;23.60;99.90
1391;DHT22;690;51.454;7.194;2022-09-09T13:47:30;23.50;99.90
1391;DHT22;690;51.454;7.194;2022-09-09T13:50:14;23.40;99.90
1391;DHT22;690;51.454;7.194;2022-09-09T13:52:44;23.40;99.90
1391;DHT22;690;51.454;7.194;2022-09-09T13:55:13;23.20;99.90
1391;DHT22;690;51.454;7.194;2022-09-09T13:57:50;23.00;99.90
1391;DHT22;690;51.454;7.194;2022-09-09T14:00:17;22.70;99.90
1391;DHT22;690;51.454;7.194;2022-09-09T14:02:44;22.40;99.90
1391;DHT22;690;51.454;7.194;2022-09-09T14:05:12;22.10;99.90
1391;DHT22;690;51.454;7.194;2022-09-09T14:07:40;21.70;99.90
1391;DHT22;690;51.454;7.194;2022-09-09T14:10:08;21.40;99.90
1391;DHT22;690;51.454;7.194;2022-09-09T14:12:35;21.10;99.90
1391;DHT22;690;51.454;7.194;2022-09-09T14:15:03;20.80;1.00
1391;DHT22;690;51.454;7.194;2022-09-09T14:17:30;20.60;1.00
1391;DHT22;690;51.454;7.194;2022-09-09T14:19:57;20.50;1.00
1391;DHT22;690;51.454;7.194;2022-09-09T14:22:25;20.40;1.00
1391;DHT22;690;51.454;7.194;2022-09-09T14:24:54;20.30;35.80
1391;DHT22;690;51.454;7.194;2022-09-09T14:27:20;20.30;99.90
1391;DHT22;690;51.454;7.194;2022-09-09T14:29:47;20.50;99.90
1391;DHT22;690;51.454;7.194;2022-09-09T14:32:14;20.70;1.00
1391;DHT22;690;51.454;7.194;2022-09-09T14:34:41;20.90;1.00
1391;DHT22;690;51.454;7.194;2022-09-09T14:37:08;21.20;27.80
1391;DHT22;690;51.454;7.194;2022-09-09T14:39:36;21.40;1.00
1391;DHT22;690;51.454;7.194;2022-09-09T14:42:04;21.50;1.00
1391;DHT22;690;51.454;7.194;2022-09-09T14:44:30;21.60;1.00
1391;DHT22;690;51.454;7.194;2022-09-09T14:46:57;21.60;99.90
1391;DHT22;690;51.454;7.194;2022-09-09T14:49:24;21.60;99.90
1391;DHT22;690;51.454;7.194;2022-09-09T14:51:51;21.50;99.90
1391;DHT22;690;51.454;7.194;2022-09-09T14:54:18;21.50;99.90
1391;DHT22;690;51.454;7.194;2022-09-09T14:56:48;21.40;99.90
1391;DHT22;690;51.454;7.194;2022-09-09T14:59:15;21.40;99.90
1391;DHT22;690;51.454;7.194;2022-09-09T15:01:42;21.40;1.00
1391;DHT22;690;51.454;7.194;2022-09-09T15:04:12;21.40;1.00
1391;DHT22;690;51.454;7.194;2022-09-09T15:06:40;21.50;1.00
1391;DHT22;690;51.454;7.194;2022-09-09T15:09:09;21.70;62.60
1391;DHT22;690;51.454;7.194;2022-09-09T15:11:37;21.80;1.00
1391;DHT22;690;51.454;7.194;2022-09-09T15:14:06;21.80;1.00
1391;DHT22;690;51.454;7.194;2022-09-09T15:16:34;21.80;1.00
1391;DHT22;690;51.454;7.194;2022-09-09T15:19:02;21.70;1.00
1391;DHT22;690;51.454;7.194;2022-09-09T15:21:31;21.60;99.90
1391;DHT22;690;51.454;7.194;2022-09-09T15:23:59;21.50;99.90
1391;DHT22;690;51.454;7.194;2022-09-09T15:26:26;21.40;99.90
1391;DHT22;690;51.454;7.194;2022-09-09T15:28:53;21.20;99.90
1391;DHT22;690;51.454;7.194;2022-09-09T15:31:24;21.10;99.90
1391;DHT22;690;51.454;7.194;2022-09-09T15:33:52;20.80;99.90
1391;DHT22;690;51.454;7.194;2022-09-09T15:36:21;20.60;99.90
1391;DHT22;690;51.454;7.194;2022-09-09T15:38:48;20.40;99.90
1391;DHT22;690;51.454;7.194;2022-09-09T15:41:16;20.30;99.90
1391;DHT22;690;51.454;7.194;2022-09-09T15:43:44;20.20;99.90
1391;DHT22;690;51.454;7.194;2022-09-09T15:46:30;20.10;99.90
1391;DHT22;690;51.454;7.194;2022-09-09T15:49:02;20.20;99.90
1391;DHT22;690;51.454;7.194;2022-09-09T15:51:30;20.10;99.90
1391;DHT22;690;51.454;7.194;2022-09-09T15:53:58;20.00;99.90
1391;DHT22;690;51.454;7.194;2022-09-09T15:56:26;19.90;99.90
1391;DHT22;690;51.454;7.194;2022-09-09T15:58:55;19.80;99.90
1391;DHT22;690;51.454;7.194;2022-09-09T16:01:23;19.70;99.90
1391;DHT22;690;51.454;7.194;2022-09-09T16:03:51;19.70;1.00
1391;DHT22;690;51.454;7.194;2022-09-09T16:06:19;19.60;1.00
1391;DHT22;690;51.454;7.194;2022-09-09T16:08:49;19.60;1.00
1391;DHT22;690;51.454;7.194;2022-09-09T16:11:18;19.50;1.00
1391;DHT22;690;51.454;7.194;2022-09-09T16:13:47;19.50;1.00
1391;DHT22;690;51.454;7.194;2022-09-09T16:16:15;19.50;1.00
1391;DHT22;690;51.454;7.194;2022-09-09T16:18:43;19.50;1.00
1391;DHT22;690;51.454;7.194;2022-09-09T16:21:14;19.50;47.00
1391;DHT22;690;51.454;7.194;2022-09-09T16:23:41;19.50;99.90
1391;DHT22;690;51.454;7.194;2022-09-09T16:26:11;19.60;99.90
1391;DHT22;690;51.454;7.194;2022-09-09T16:28:38;19.60;99.90
1391;DHT22;690;51.454;7.194;2022-09-09T16:31:06;19.60;99.90
1391;DHT22;690;51.454;7.194;2022-09-09T16:33:33;19.70;99.90
1391;DHT22;690;51.454;7.194;2022-09-09T16:36:05;20.00;99.90
1391;DHT22;690;51.454;7.194;2022-09-09T16:38:34;20.40;99.90
1391;DHT22;690;51.454;7.194;2022-09-09T16:41:02;20.60;99.90
1391;DHT22;690;51.454;7.194;2022-09-09T16:43:30;20.70;87.90
1391;DHT22;690;51.454;7.194;2022-09-09T16:45:57;20.70;1.00